createdAt,value
2023-03-18T00:01:18.998Z,21.30
2023-03-18T00:03:49.485Z,16.70
2023-03-18T00:06:18.839Z,16.10
2023-03-18T00:08:47.528Z,19.00
2023-03-18T00:11:18.591Z,17.90
2023-03-18T00:13:48.591Z,19.30
2023-03-18T00:16:18.338Z,18.90
2023-03-18T00:18:47.036Z,16.00
2023-03-18T00:21:17.013Z,16.60
2023-03-18T00:23:45.604Z,17.60
2023-03-18T00:26:14.508Z,21.60
2023-03-18T00:28:42.939Z,16.00
2023-03-18T00:31:13.826Z,14.40
2023-03-18T00:33:46.054Z,18.90
2023-03-18T00:36:16.117Z,18.00
2023-03-18T00:38:47.444Z,19.50
2023-03-18T00:41:21.922Z,15.20
2023-03-18T00:43:54.286Z,19.60
2023-03-18T00:46:29.655Z,19.20
2023-03-18T00:49:02.283Z,16.60
2023-03-18T00:51:33.231Z,17.40
2023-03-18T00:54:04.711Z,18.40
2023-03-18T00:56:33.369Z,18.70
2023-03-18T00:59:02.404Z,19.40
2023-03-18T01:01:31.504Z,19.80
2023-03-18T01:04:02.110Z,15.50
2023-03-18T01:06:34.094Z,18.50
2023-03-18T01:09:02.878Z,18.70
2023-03-18T01:11:31.770Z,22.20
2023-03-18T01:14:00.690Z,19.90
2023-03-18T01:16:30.311Z,19.70
2023-03-18T01:18:58.747Z,18.30
2023-03-18T01:21:26.989Z,19.80
2023-03-18T01:24:00.885Z,19.90
2023-03-18T01:26:30.345Z,22.40
2023-03-18T01:29:00.252Z,18.50
2023-03-18T01:31:29.981Z,15.40
2023-03-18T01:34:02.459Z,18.40
2023-03-18T01:36:38.139Z,16.60
2023-03-18T01:39:10.381Z,16.80
2023-03-18T01:41:40.391Z,17.70
2023-03-18T01:44:14.422Z,21.60
2023-03-18T01:46:47.096Z,19.40
2023-03-18T01:49:37.063Z,24.00
2023-03-18T01:52:22.226Z,18.60
2023-03-18T01:54:59.969Z,20.40
2023-03-18T01:57:32.862Z,18.30
2023-03-18T02:00:02.215Z,20.70
2023-03-18T02:02:35.207Z,17.00
2023-03-18T02:05:06.441Z,18.20
2023-03-18T02:07:35.301Z,19.20
2023-03-18T02:10:11.826Z,18.70
2023-03-18T02:12:44.228Z,17.40
2023-03-18T02:15:16.766Z,13.80
2023-03-18T02:17:54.086Z,15.80
2023-03-18T02:20:28.373Z,15.10
2023-03-18T02:23:06.679Z,13.80
2023-03-18T02:25:47.998Z,16.20
2023-03-18T02:28:23.300Z,16.20
2023-03-18T02:30:57.248Z,17.20
2023-03-18T02:33:28.919Z,18.90
2023-03-18T02:36:04.592Z,17.50
2023-03-18T02:38:35.473Z,15.00
2023-03-18T02:41:15.372Z,23.30
2023-03-18T02:43:44.712Z,17.00
2023-03-18T02:46:35.644Z,15.10
2023-03-18T02:49:05.327Z,14.40
2023-03-18T02:51:37.071Z,15.30
2023-03-18T02:54:12.620Z,17.50
2023-03-18T02:56:42.835Z,17.00
2023-03-18T02:59:14.003Z,15.10
2023-03-18T03:01:44.083Z,12.90
2023-03-18T03:04:12.715Z,13.30
2023-03-18T03:06:42.861Z,14.30
2023-03-18T03:09:14.173Z,15.60
2023-03-18T03:11:43.595Z,14.30
2023-03-18T03:14:16.582Z,13.40
2023-03-18T03:16:46.817Z,15.40
2023-03-18T03:19:16.811Z,11.90
2023-03-18T03:21:45.320Z,14.90
2023-03-18T03:24:13.803Z,11.80
2023-03-18T03:26:46.484Z,14.00
2023-03-18T03:29:14.771Z,13.20
2023-03-18T03:31:42.946Z,18.40
2023-03-18T03:34:12.081Z,17.70
2023-03-18T03:36:40.977Z,12.70
2023-03-18T03:39:10.859Z,12.00
2023-03-18T03:41:39.044Z,13.70
2023-03-18T03:44:07.444Z,16.10
2023-03-18T03:46:37.622Z,15.30
2023-03-18T03:49:06.873Z,14.30
2023-03-18T03:51:35.095Z,13.60
2023-03-18T03:54:03.661Z,12.30
2023-03-18T03:56:32.418Z,18.60
2023-03-18T03:59:00.888Z,14.00
2023-03-18T04:01:40.330Z,17.80
2023-03-18T04:04:08.726Z,15.70
2023-03-18T04:06:37.193Z,13.50
2023-03-18T04:09:05.983Z,15.60
2023-03-18T04:11:34.882Z,16.50
2023-03-18T04:14:03.129Z,14.80
2023-03-18T04:16:32.069Z,18.30
2023-03-18T04:19:01.373Z,14.40
2023-03-18T04:21:30.871Z,14.10
2023-03-18T04:23:59.402Z,18.50
2023-03-18T04:26:28.593Z,15.80
2023-03-18T04:29:05.820Z,16.00
2023-03-18T04:31:34.374Z,20.20
2023-03-18T04:34:03.632Z,16.30
2023-03-18T04:36:32.833Z,18.00
2023-03-18T04:39:01.014Z,22.80
2023-03-18T04:41:29.782Z,17.50
2023-03-18T04:44:00.758Z,19.10
2023-03-18T04:46:36.429Z,17.50
2023-03-18T04:49:06.722Z,15.60
2023-03-18T04:51:35.850Z,17.00
2023-03-18T04:54:05.227Z,16.90
2023-03-18T04:56:34.447Z,19.10
2023-03-18T04:59:03.295Z,16.30
2023-03-18T05:01:34.003Z,23.30
2023-03-18T05:04:02.903Z,18.80
2023-03-18T05:06:39.316Z,18.70
2023-03-18T05:09:13.362Z,17.20
2023-03-18T05:11:45.430Z,18.90
2023-03-18T05:14:23.612Z,21.60
2023-03-18T05:16:52.058Z,15.60
2023-03-18T05:19:20.786Z,15.40
2023-03-18T05:21:56.152Z,19.50
2023-03-18T05:24:25.848Z,15.70
2023-03-18T05:27:00.307Z,14.80
2023-03-18T05:29:34.067Z,17.20
2023-03-18T05:32:17.085Z,20.00
2023-03-18T05:34:46.073Z,14.40
2023-03-18T05:37:15.701Z,16.30
2023-03-18T05:39:48.072Z,17.60
2023-03-18T05:42:18.243Z,15.40
2023-03-18T05:44:47.091Z,16.90
2023-03-18T05:47:16.039Z,18.50
2023-03-18T05:49:53.267Z,20.40
2023-03-18T05:52:24.923Z,18.90
2023-03-18T05:54:55.869Z,24.90
2023-03-18T05:57:28.548Z,20.20
2023-03-18T06:00:03.238Z,32.50
2023-03-18T06:02:43.941Z,23.90
2023-03-18T06:05:13.121Z,25.80
2023-03-18T06:07:41.486Z,21.00
2023-03-18T06:10:12.387Z,28.50
2023-03-18T06:12:41.788Z,25.40
2023-03-18T06:15:12.050Z,23.90
2023-03-18T06:17:42.330Z,33.40
2023-03-18T06:20:11.927Z,32.00
2023-03-18T06:22:40.524Z,24.90
2023-03-18T06:25:10.196Z,27.80
2023-03-18T06:27:41.384Z,29.20
2023-03-18T06:30:25.226Z,35.70
2023-03-18T06:32:57.264Z,27.40
2023-03-18T06:35:32.812Z,37.90
2023-03-18T06:38:01.635Z,42.10
2023-03-18T06:40:30.897Z,28.70
2023-03-18T06:42:59.364Z,31.70
2023-03-18T06:45:38.370Z,22.30
2023-03-18T06:48:09.681Z,24.40
2023-03-18T06:50:42.320Z,24.80
2023-03-18T06:53:19.126Z,34.10
2023-03-18T06:55:49.821Z,40.90
2023-03-18T06:58:19.136Z,31.50
2023-03-18T07:00:58.894Z,37.70
2023-03-18T07:03:30.185Z,28.20
2023-03-18T07:05:58.465Z,21.10
2023-03-18T07:08:29.349Z,29.10
2023-03-18T07:10:57.911Z,20.90
2023-03-18T07:13:27.140Z,24.00
2023-03-18T07:15:56.860Z,37.00
2023-03-18T07:18:25.295Z,35.30
2023-03-18T07:20:55.160Z,25.90
2023-03-18T07:23:23.959Z,27.50
2023-03-18T07:25:52.725Z,23.80
2023-03-18T07:28:21.329Z,34.80
2023-03-18T07:30:52.418Z,26.20
2023-03-18T07:33:26.137Z,27.90
2023-03-18T07:35:55.668Z,46.30
2023-03-18T07:38:24.470Z,34.30
2023-03-18T07:40:52.602Z,25.90
2023-03-18T07:43:20.992Z,43.00
2023-03-18T07:45:51.040Z,20.10
2023-03-18T07:48:20.489Z,28.30
2023-03-18T07:50:48.689Z,33.50
2023-03-18T07:53:19.232Z,25.80
2023-03-18T07:55:47.614Z,27.80
2023-03-18T07:58:15.898Z,44.50
2023-03-18T08:00:45.246Z,50.90
2023-03-18T08:03:15.054Z,20.90
2023-03-18T08:05:44.667Z,37.20
2023-03-18T08:08:12.908Z,27.80
2023-03-18T08:10:43.133Z,34.70
2023-03-18T08:13:13.179Z,29.20
2023-03-18T08:15:41.542Z,37.40
2023-03-18T08:18:10.746Z,42.70
2023-03-18T08:20:40.059Z,28.30
2023-03-18T08:23:09.044Z,42.50
2023-03-18T08:25:38.458Z,33.80
2023-03-18T08:28:07.776Z,29.20
2023-03-18T08:30:36.036Z,21.20
2023-03-18T08:33:04.885Z,28.80
2023-03-18T08:35:34.369Z,30.80
2023-03-18T08:38:07.022Z,37.10
2023-03-18T08:40:39.857Z,30.70
2023-03-18T08:43:08.755Z,30.80
2023-03-18T08:45:39.310Z,24.00
2023-03-18T08:48:08.431Z,29.70
2023-03-18T08:50:42.649Z,35.30
2023-03-18T08:53:11.566Z,32.60
2023-03-18T08:55:40.848Z,20.10
2023-03-18T08:58:09.186Z,19.30
2023-03-18T09:00:39.147Z,27.30
2023-03-18T09:03:07.902Z,29.10
2023-03-18T09:05:36.630Z,20.80
2023-03-18T09:08:05.422Z,32.50
2023-03-18T09:10:35.878Z,28.50
2023-03-18T09:13:05.673Z,35.10
2023-03-18T09:15:34.756Z,22.50
2023-03-18T09:18:12.161Z,23.10
2023-03-18T09:20:41.301Z,39.30
2023-03-18T09:23:11.638Z,29.70
2023-03-18T09:25:42.881Z,28.30
2023-03-18T09:28:11.111Z,31.40
2023-03-18T09:30:42.642Z,26.80
2023-03-18T09:33:11.833Z,24.90
2023-03-18T09:35:42.887Z,34.20
2023-03-18T09:38:18.152Z,31.20
2023-03-18T09:40:58.725Z,34.90
2023-03-18T09:43:53.413Z,35.60
2023-03-18T09:46:25.033Z,34.10
2023-03-18T09:49:12.266Z,39.80
2023-03-18T09:52:18.519Z,26.00
2023-03-18T09:54:52.769Z,22.20
2023-03-18T09:57:28.763Z,21.80
2023-03-18T10:00:20.604Z,24.90
2023-03-18T10:02:53.336Z,31.40
2023-03-18T10:05:31.640Z,45.70
2023-03-18T10:08:04.918Z,31.90
2023-03-18T10:10:41.564Z,44.30
2023-03-18T10:13:15.986Z,35.00
2023-03-18T10:15:46.362Z,28.30
2023-03-18T10:18:32.431Z,30.50
2023-03-18T10:21:00.453Z,35.00
2023-03-18T10:23:41.979Z,37.30
2023-03-18T10:26:38.482Z,32.60
2023-03-18T10:29:38.089Z,31.10
2023-03-18T10:32:10.459Z,26.20
2023-03-18T10:34:46.274Z,30.10
2023-03-18T10:37:36.214Z,43.80
2023-03-18T10:40:16.097Z,44.90
2023-03-18T10:42:44.744Z,36.20
2023-03-18T10:45:24.824Z,25.50
2023-03-18T10:47:59.399Z,34.30
2023-03-18T10:50:31.499Z,36.10
2023-03-18T10:53:20.108Z,27.00
2023-03-18T10:56:02.827Z,26.20
2023-03-18T10:58:31.199Z,24.80
2023-03-18T11:00:59.580Z,31.10
2023-03-18T11:03:52.880Z,28.60
2023-03-18T11:06:31.393Z,25.00
2023-03-18T11:09:08.595Z,18.90
2023-03-18T11:11:40.180Z,31.70
2023-03-18T11:14:21.185Z,24.00
2023-03-18T11:17:00.366Z,22.80
2023-03-18T11:19:32.454Z,30.80
2023-03-18T11:22:12.043Z,31.00
2023-03-18T11:24:42.839Z,23.70
2023-03-18T11:27:16.064Z,17.90
2023-03-18T11:29:49.836Z,27.00
2023-03-18T11:32:24.877Z,23.50
2023-03-18T11:35:00.789Z,20.40
2023-03-18T11:40:14.683Z,15.40
2023-03-18T11:42:43.318Z,15.80
2023-03-18T11:45:44.425Z,17.20
2023-03-18T11:48:40.621Z,15.10
2023-03-18T11:51:29.922Z,30.30
2023-03-18T11:54:04.811Z,20.40
2023-03-18T11:56:34.733Z,19.80
2023-03-18T11:59:31.489Z,19.10
2023-03-18T12:02:18.971Z,13.40
2023-03-18T12:07:40.710Z,21.20
2023-03-18T12:10:36.522Z,27.60
2023-03-18T12:13:45.751Z,22.50
2023-03-18T12:16:56.815Z,22.40
2023-03-18T12:19:50.971Z,22.00
2023-03-18T12:22:27.769Z,23.60
2023-03-18T12:28:26.523Z,17.50
2023-03-18T12:31:33.630Z,21.40
2023-03-18T12:34:04.889Z,17.40
2023-03-18T12:39:30.972Z,17.40
2023-03-18T12:42:17.064Z,9.60
2023-03-18T12:45:02.095Z,16.00
2023-03-18T12:47:48.424Z,21.70
2023-03-18T12:50:16.867Z,9.90
2023-03-18T12:52:47.535Z,13.80
2023-03-18T12:55:31.888Z,10.50
2023-03-18T12:58:00.571Z,11.80
2023-03-18T13:00:59.922Z,15.50
2023-03-18T13:03:35.412Z,8.90
2023-03-18T13:06:29.280Z,8.30
2023-03-18T13:11:59.903Z,6.80
2023-03-18T13:14:46.201Z,12.90
2023-03-18T13:17:24.504Z,9.80
2023-03-18T13:19:52.791Z,7.70
2023-03-18T13:22:47.755Z,12.20
2023-03-18T13:25:51.567Z,13.70
2023-03-18T13:28:44.831Z,6.80
2023-03-18T13:31:31.121Z,7.70
2023-03-18T13:34:04.332Z,6.30
2023-03-18T13:36:54.580Z,7.50
2023-03-18T13:39:42.409Z,9.20
2023-03-18T13:42:28.850Z,7.20
2023-03-18T13:45:42.519Z,7.90
2023-03-18T13:48:40.584Z,7.30
2023-03-18T13:51:46.015Z,6.30
2023-03-18T13:54:18.582Z,6.50
2023-03-18T13:56:50.231Z,7.50
2023-03-18T13:59:34.384Z,10.90
2023-03-18T14:02:40.222Z,6.60
2023-03-18T14:05:34.181Z,4.00
2023-03-18T14:08:05.499Z,4.90
2023-03-18T14:10:33.718Z,7.60
2023-03-18T14:13:25.948Z,15.80
2023-03-18T14:15:56.235Z,8.10
2023-03-18T14:18:27.880Z,7.80
2023-03-18T14:20:59.990Z,5.20
2023-03-18T14:23:43.941Z,6.70
2023-03-18T14:26:26.740Z,7.10
2023-03-18T14:28:56.267Z,7.20
2023-03-18T14:31:32.838Z,6.00
2023-03-18T14:34:05.616Z,8.10
2023-03-18T14:36:54.260Z,5.60
2023-03-18T14:39:35.027Z,6.10
2023-03-18T14:42:05.542Z,9.50
2023-03-18T14:44:46.335Z,4.60
2023-03-18T14:47:31.935Z,4.70
2023-03-18T14:50:25.969Z,6.30
2023-03-18T14:53:00.756Z,4.40
2023-03-18T14:55:32.574Z,19.80
2023-03-18T14:58:01.404Z,18.10
2023-03-18T15:00:36.435Z,11.90
2023-03-18T15:03:09.563Z,5.40
2023-03-18T15:05:40.262Z,5.90
2023-03-18T15:08:47.650Z,5.60
2023-03-18T15:11:16.768Z,5.70
2023-03-18T15:13:46.709Z,4.60
2023-03-18T15:16:18.923Z,6.00
2023-03-18T15:18:53.132Z,7.10
2023-03-18T15:21:28.943Z,5.20
2023-03-18T15:24:00.302Z,7.90
2023-03-18T15:26:28.787Z,8.90
2023-03-18T15:28:59.317Z,5.20
2023-03-18T15:31:30.023Z,5.30
2023-03-18T15:34:19.108Z,4.70
2023-03-18T15:36:58.138Z,5.00
2023-03-18T15:39:36.275Z,8.90
2023-03-18T15:42:19.360Z,6.70
2023-03-18T15:44:58.624Z,9.10
2023-03-18T15:47:31.824Z,8.30
2023-03-18T15:50:24.688Z,10.40
2023-03-18T15:53:02.557Z,12.30
2023-03-18T15:55:37.541Z,12.90
2023-03-18T15:58:06.187Z,15.20
2023-03-18T16:00:34.943Z,9.70
2023-03-18T16:03:05.866Z,7.80
2023-03-18T16:05:35.026Z,10.10
2023-03-18T16:08:03.882Z,10.30
2023-03-18T16:10:32.732Z,8.80
2023-03-18T16:13:01.669Z,9.50
2023-03-18T16:15:30.010Z,11.10
2023-03-18T16:18:00.423Z,12.30
2023-03-18T16:20:30.017Z,15.10
2023-03-18T16:22:59.821Z,14.10
2023-03-18T16:25:28.099Z,14.50
2023-03-18T16:27:57.607Z,10.10
2023-03-18T16:30:28.050Z,12.50
2023-03-18T16:32:56.935Z,21.10
2023-03-18T16:35:32.813Z,10.00
2023-03-18T16:38:01.263Z,12.20
2023-03-18T16:40:31.876Z,14.10
2023-03-18T16:43:02.326Z,18.40
2023-03-18T16:45:32.379Z,11.10
2023-03-18T16:48:07.196Z,9.10
2023-03-18T16:50:37.446Z,12.20
2023-03-18T16:53:22.051Z,17.30
2023-03-18T16:55:51.995Z,12.50
2023-03-18T16:58:28.230Z,9.00
2023-03-18T17:00:57.215Z,9.00
2023-03-18T17:03:26.328Z,9.70
2023-03-18T17:05:58.644Z,7.50
2023-03-18T17:08:27.087Z,8.30
2023-03-18T17:10:56.956Z,7.40
2023-03-18T17:13:33.271Z,9.20
2023-03-18T17:16:01.980Z,5.70
2023-03-18T17:18:30.298Z,7.50
2023-03-18T17:21:05.612Z,8.40
2023-03-18T17:23:34.478Z,9.20
2023-03-18T17:26:03.081Z,12.20
2023-03-18T17:28:39.432Z,6.70
2023-03-18T17:31:07.805Z,4.40
2023-03-18T17:33:42.134Z,4.80
2023-03-18T17:36:11.134Z,7.10
2023-03-18T17:38:39.195Z,9.10
2023-03-18T17:41:19.700Z,6.80
2023-03-18T17:43:52.549Z,6.70
2023-03-18T17:46:20.661Z,6.30
2023-03-18T17:48:49.113Z,5.90
2023-03-18T17:51:23.969Z,6.40
2023-03-18T17:53:59.023Z,4.40
2023-03-18T17:56:28.083Z,5.40
2023-03-18T17:58:56.873Z,5.10
2023-03-18T18:01:27.420Z,6.20
2023-03-18T18:03:56.344Z,5.90
2023-03-18T18:06:27.301Z,7.20
2023-03-18T18:08:59.026Z,4.80
2023-03-18T18:11:35.579Z,4.20
2023-03-18T18:14:25.130Z,6.20
2023-03-18T18:16:59.700Z,4.70
2023-03-18T18:19:30.740Z,4.60
2023-03-18T18:22:03.639Z,3.90
2023-03-18T18:24:33.607Z,5.60
2023-03-18T18:27:04.582Z,5.20
2023-03-18T18:29:34.998Z,5.40
2023-03-18T18:32:06.850Z,4.20
2023-03-18T18:34:36.558Z,8.40
2023-03-18T18:37:05.047Z,4.90
2023-03-18T18:39:33.234Z,5.20
2023-03-18T18:44:38.892Z,4.20
2023-03-18T18:47:20.071Z,3.50
2023-03-18T18:49:52.352Z,4.10
2023-03-18T18:52:20.721Z,5.70
2023-03-18T18:54:49.864Z,4.90
2023-03-18T18:57:29.261Z,5.00
2023-03-18T18:59:58.298Z,3.80
2023-03-18T19:02:34.119Z,7.30
2023-03-18T19:05:04.847Z,5.80
2023-03-18T19:07:33.889Z,4.40
2023-03-18T19:10:02.235Z,5.00
2023-03-18T19:12:31.221Z,3.50
2023-03-18T19:14:59.913Z,5.90
2023-03-18T19:17:28.509Z,4.10
2023-03-18T19:19:56.996Z,4.50
2023-03-18T19:22:26.495Z,4.80
2023-03-18T19:24:54.778Z,5.60
2023-03-18T19:27:28.041Z,4.60
2023-03-18T19:29:58.915Z,5.20
2023-03-18T19:32:27.501Z,4.00
2023-03-18T19:34:58.648Z,4.20
2023-03-18T19:37:29.356Z,5.10
2023-03-18T19:39:58.311Z,5.60
2023-03-18T19:42:27.289Z,4.80
2023-03-18T19:44:56.698Z,4.00
2023-03-18T19:47:28.361Z,4.90
2023-03-18T19:49:56.790Z,5.70
2023-03-18T19:52:28.785Z,4.60
2023-03-18T19:54:57.783Z,5.20
2023-03-18T19:57:29.971Z,5.20
2023-03-18T20:00:01.403Z,3.60
2023-03-18T20:02:31.589Z,4.90
2023-03-18T20:05:01.915Z,6.60
2023-03-18T20:07:32.689Z,4.60
2023-03-18T20:10:01.182Z,5.40
2023-03-18T20:12:40.448Z,5.10
2023-03-18T20:15:16.605Z,4.60
2023-03-18T20:17:45.985Z,4.30
2023-03-18T20:20:17.844Z,3.90
2023-03-18T20:22:53.033Z,4.70
2023-03-18T20:25:36.660Z,3.80
2023-03-18T20:28:08.099Z,5.70
2023-03-18T20:30:37.883Z,4.90
2023-03-18T20:33:07.488Z,5.10
2023-03-18T20:35:42.968Z,5.90
2023-03-18T20:38:17.672Z,6.20
2023-03-18T20:40:47.897Z,5.80
2023-03-18T20:43:20.068Z,7.50
2023-03-18T20:45:51.608Z,4.90
2023-03-18T20:48:22.388Z,6.10
2023-03-18T20:50:52.064Z,3.30
2023-03-18T20:53:25.060Z,4.40
2023-03-18T20:55:53.227Z,4.10
2023-03-18T20:58:25.823Z,6.70
2023-03-18T21:00:54.863Z,4.60
2023-03-18T21:03:25.350Z,4.00
2023-03-18T21:05:56.283Z,5.10
2023-03-18T21:08:25.392Z,4.70
2023-03-18T21:10:54.275Z,8.40
2023-03-18T21:13:39.247Z,6.10
2023-03-18T21:16:11.695Z,9.10
2023-03-18T21:18:45.629Z,5.80
2023-03-18T21:21:21.137Z,5.80
2023-03-18T21:23:49.471Z,5.10
2023-03-18T21:26:18.366Z,4.80
2023-03-18T21:28:48.056Z,6.10
2023-03-18T21:31:31.612Z,5.40
2023-03-18T21:34:00.283Z,5.80
2023-03-18T21:36:29.280Z,5.90
2023-03-18T21:38:57.972Z,5.50
2023-03-18T21:41:28.190Z,6.60
2023-03-18T21:43:56.306Z,5.50
2023-03-18T21:46:27.023Z,8.40
2023-03-18T21:48:56.128Z,4.00
2023-03-18T21:51:38.731Z,5.40
2023-03-18T21:54:26.337Z,5.10
2023-03-18T21:56:55.436Z,6.60
2023-03-18T21:59:23.779Z,6.30
2023-03-18T22:01:52.868Z,4.70
2023-03-18T22:04:23.596Z,4.70
2023-03-18T22:06:52.670Z,5.40
2023-03-18T22:09:23.292Z,5.30
2023-03-18T22:11:51.578Z,5.10
2023-03-18T22:14:19.751Z,6.80
2023-03-18T22:16:48.433Z,5.90
2023-03-18T22:19:17.695Z,7.10
2023-03-18T22:21:47.650Z,10.00
2023-03-18T22:24:15.883Z,8.30
2023-03-18T22:26:44.020Z,8.00
2023-03-18T22:29:13.080Z,7.50
2023-03-18T22:31:43.879Z,7.80
2023-03-18T22:34:38.755Z,6.90
2023-03-18T22:37:11.732Z,7.60
2023-03-18T22:39:39.937Z,10.30
2023-03-18T22:42:10.375Z,6.50
2023-03-18T22:44:40.053Z,9.80
2023-03-18T22:47:16.662Z,6.00
2023-03-18T22:49:45.344Z,7.20
2023-03-18T22:52:21.316Z,6.10
2023-03-18T22:54:58.493Z,6.00
2023-03-18T22:57:27.655Z,6.40
2023-03-18T22:59:56.760Z,4.80
2023-03-18T23:02:27.483Z,7.20
2023-03-18T23:04:55.611Z,6.40
2023-03-18T23:07:28.717Z,6.20
2023-03-18T23:09:58.632Z,3.50
2023-03-18T23:12:30.352Z,5.30
2023-03-18T23:15:04.042Z,5.90
2023-03-18T23:17:32.405Z,4.70
2023-03-18T23:20:00.813Z,6.70
2023-03-18T23:22:33.725Z,6.60
2023-03-18T23:25:02.185Z,7.20
2023-03-18T23:27:30.764Z,5.60
2023-03-18T23:29:59.358Z,4.40
2023-03-18T23:32:27.968Z,6.20
2023-03-18T23:34:56.231Z,4.20
2023-03-18T23:37:24.777Z,3.90
2023-03-18T23:39:53.107Z,5.60
2023-03-18T23:42:23.142Z,5.10
2023-03-18T23:44:51.332Z,4.60
2023-03-18T23:47:20.051Z,8.70
2023-03-18T23:49:48.577Z,4.20
2023-03-18T23:52:16.849Z,5.20
2023-03-18T23:54:45.338Z,6.40
2023-03-18T23:57:14.340Z,7.10
2023-03-18T23:59:42.617Z,4.90
